createdAt,value
2019-02-27T00:00:44.966Z,1.4
2019-02-27T00:01:52.164Z,1.4
2019-02-27T00:02:59.395Z,1.3
2019-02-27T00:04:06.602Z,1.3
2019-02-27T00:05:13.841Z,1.3
2019-02-27T00:06:20.522Z,1.3
2019-02-27T00:07:27.460Z,1.2
2019-02-27T00:08:34.401Z,1.2
2019-02-27T00:09:41.622Z,1.2
2019-02-27T00:10:48.540Z,1.2
2019-02-27T00:11:55.775Z,1.1
2019-02-27T00:13:02.724Z,1.1
2019-02-27T00:14:09.946Z,1
2019-02-27T00:15:16.873Z,1
2019-02-27T00:16:24.090Z,1.1
2019-02-27T00:17:31.024Z,1
2019-02-27T00:18:37.945Z,1
2019-02-27T00:19:45.147Z,1
2019-02-27T00:20:52.362Z,1
2019-02-27T00:21:59.562Z,0.9
2019-02-27T00:23:06.763Z,1
2019-02-27T00:24:13.961Z,0.9
2019-02-27T00:25:20.889Z,0.9
2019-02-27T00:26:28.091Z,0.9
2019-02-27T00:27:35.056Z,0.9
2019-02-27T00:28:42.267Z,0.8
2019-02-27T00:29:49.270Z,0.9
2019-02-27T00:30:56.202Z,0.8
2019-02-27T00:32:03.407Z,0.8
2019-02-27T00:33:10.347Z,0.8
2019-02-27T00:34:17.283Z,0.8
2019-02-27T00:35:24.481Z,0.8
2019-02-27T00:36:31.680Z,0.8
2019-02-27T00:37:38.889Z,0.8
2019-02-27T00:38:46.129Z,0.7
2019-02-27T00:39:53.329Z,0.7
2019-02-27T00:41:00.558Z,0.7
2019-02-27T00:42:07.768Z,0.7
2019-02-27T00:43:14.975Z,0.7
2019-02-27T00:44:22.183Z,0.7
2019-02-27T00:45:29.382Z,0.6
2019-02-27T00:46:36.313Z,0.6
2019-02-27T00:47:43.513Z,0.6
2019-02-27T00:48:50.723Z,0.6
2019-02-27T00:49:57.942Z,0.6
2019-02-27T00:51:04.858Z,0.6
2019-02-27T00:52:11.809Z,0.5
2019-02-27T00:53:19.021Z,0.5
2019-02-27T00:54:32.434Z,0.5
2019-02-27T00:55:40.015Z,0.5
2019-02-27T00:56:47.214Z,0.4
2019-02-27T00:57:55.399Z,0.4
2019-02-27T00:59:02.600Z,0.4
2019-02-27T01:00:09.812Z,0.4
2019-02-27T01:01:17.015Z,0.4
2019-02-27T01:02:24.226Z,0.4
2019-02-27T01:03:31.422Z,0.4
2019-02-27T01:04:38.355Z,0.4
2019-02-27T01:05:45.295Z,0.4
2019-02-27T01:06:52.506Z,0.3
2019-02-27T01:07:59.723Z,0.3
2019-02-27T01:09:07.563Z,0.3
2019-02-27T01:10:14.503Z,0.3
2019-02-27T01:11:21.719Z,0.3
2019-02-27T01:12:28.915Z,0.3
2019-02-27T01:13:35.852Z,0.3
2019-02-27T01:14:43.043Z,0.3
2019-02-27T01:15:49.978Z,0.3
2019-02-27T01:16:56.917Z,0.3
2019-02-27T01:18:04.126Z,0.3
2019-02-27T01:19:11.347Z,0.3
2019-02-27T01:20:18.624Z,0.3
2019-02-27T01:21:25.821Z,0.3
2019-02-27T01:22:32.780Z,0.3
2019-02-27T01:23:44.765Z,0.3
2019-02-27T01:24:51.994Z,0.3
2019-02-27T01:25:58.936Z,0.3
2019-02-27T01:27:06.134Z,0.2
2019-02-27T01:28:13.350Z,0.2
2019-02-27T01:29:20.561Z,0.2
2019-02-27T01:30:27.775Z,0.2
2019-02-27T01:31:34.984Z,0.2
2019-02-27T01:32:41.650Z,0.2
2019-02-27T01:33:48.312Z,0.2
2019-02-27T01:34:55.537Z,0.2
2019-02-27T01:36:02.736Z,0.2
2019-02-27T01:37:09.947Z,0.2
2019-02-27T01:38:17.179Z,0.2
2019-02-27T01:39:24.393Z,0.2
2019-02-27T01:40:31.602Z,0.2
2019-02-27T01:41:38.529Z,0.1
2019-02-27T01:42:45.197Z,0.1
2019-02-27T01:43:52.411Z,0.1
2019-02-27T01:44:59.633Z,0
2019-02-27T01:46:07.056Z,0
2019-02-27T01:47:14.275Z,0
2019-02-27T01:48:21.193Z,0
2019-02-27T01:49:28.393Z,-0.1
2019-02-27T01:50:35.333Z,-0.1
2019-02-27T01:51:42.284Z,-0.1
2019-02-27T01:52:49.497Z,-0.1
2019-02-27T01:53:56.433Z,-0.2
2019-02-27T01:55:03.360Z,-0.2
2019-02-27T01:56:10.564Z,-0.1
2019-02-27T01:57:17.479Z,-0.1
2019-02-27T01:58:24.684Z,-0.1
2019-02-27T01:59:31.881Z,-0.1
2019-02-27T02:00:38.564Z,-0.1
2019-02-27T02:01:45.787Z,-0.2
2019-02-27T02:02:52.723Z,-0.2
2019-02-27T02:03:59.391Z,-0.1
2019-02-27T02:05:06.043Z,-0.1
2019-02-27T02:06:13.237Z,-0.1
2019-02-27T02:07:20.172Z,-0.1
2019-02-27T02:08:27.112Z,-0.2
2019-02-27T02:09:34.318Z,-0.2
2019-02-27T02:10:41.247Z,-0.2
2019-02-27T02:11:48.460Z,-0.2
2019-02-27T02:12:55.679Z,-0.2
2019-02-27T02:14:02.879Z,-0.2
2019-02-27T02:15:09.821Z,-0.2
2019-02-27T02:16:17.027Z,-0.2
2019-02-27T02:17:24.252Z,-0.2
2019-02-27T02:18:31.470Z,-0.3
2019-02-27T02:19:38.663Z,-0.3
2019-02-27T02:20:45.858Z,-0.3
2019-02-27T02:21:52.794Z,-0.3
2019-02-27T02:22:59.446Z,-0.3
2019-02-27T02:24:06.638Z,-0.3
2019-02-27T02:25:13.835Z,-0.3
2019-02-27T02:26:20.782Z,-0.3
2019-02-27T02:27:28.001Z,-0.3
2019-02-27T02:28:34.944Z,-0.4
2019-02-27T02:29:42.168Z,-0.3
2019-02-27T02:30:49.096Z,-0.3
2019-02-27T02:31:56.290Z,-0.3
2019-02-27T02:33:03.508Z,-0.3
2019-02-27T02:34:10.719Z,-0.4
2019-02-27T02:35:17.401Z,-0.4
2019-02-27T02:36:27.055Z,-0.5
2019-02-27T02:37:38.534Z,-0.5
2019-02-27T02:38:45.732Z,-0.6
2019-02-27T02:39:55.685Z,-0.6
2019-02-27T02:41:09.362Z,-0.7
2019-02-27T02:42:16.632Z,-0.7
2019-02-27T02:43:23.838Z,-0.7
2019-02-27T02:44:31.063Z,-0.7
2019-02-27T02:45:38.274Z,-0.7
2019-02-27T02:46:46.748Z,-0.8
2019-02-27T02:47:57.147Z,-0.8
2019-02-27T02:49:08.743Z,-0.7
2019-02-27T02:50:18.825Z,-0.7
2019-02-27T02:51:30.004Z,-0.7
2019-02-27T02:52:41.684Z,-0.7
2019-02-27T02:53:49.600Z,-0.7
2019-02-27T02:54:56.804Z,-0.7
2019-02-27T02:56:04.002Z,-0.6
2019-02-27T02:57:11.203Z,-0.5
2019-02-27T02:58:18.442Z,-0.4
2019-02-27T02:59:26.527Z,-0.3
2019-02-27T03:00:39.272Z,-0.3
2019-02-27T03:01:50.599Z,-0.3
2019-02-27T03:03:01.911Z,-0.4
2019-02-27T03:04:13.641Z,-0.4
2019-02-27T03:05:24.428Z,-0.5
2019-02-27T03:06:36.103Z,-0.4
2019-02-27T03:07:45.969Z,-0.4
2019-02-27T03:08:56.602Z,-0.4
2019-02-27T03:10:08.276Z,-0.4
2019-02-27T03:11:19.690Z,-0.5
2019-02-27T03:12:31.233Z,-0.5
2019-02-27T03:13:42.771Z,-0.6
2019-02-27T03:14:54.471Z,-0.7
2019-02-27T03:16:06.170Z,-0.7
2019-02-27T03:17:19.276Z,-0.7
2019-02-27T03:18:29.468Z,-0.7
2019-02-27T03:19:42.581Z,-0.7
2019-02-27T03:20:53.470Z,-0.7
2019-02-27T03:22:04.638Z,-0.7
2019-02-27T03:23:16.462Z,-0.7
2019-02-27T03:24:29.029Z,-0.7
2019-02-27T03:25:41.834Z,-0.7
2019-02-27T03:26:53.234Z,-0.7
2019-02-27T03:28:05.818Z,-0.7
2019-02-27T03:29:17.497Z,-0.7
2019-02-27T03:30:36.755Z,-0.7
2019-02-27T03:31:44.189Z,-0.7
2019-02-27T03:32:51.390Z,-0.7
2019-02-27T03:34:09.004Z,-0.6
2019-02-27T03:35:16.364Z,-0.7
2019-02-27T03:36:23.602Z,-0.7
2019-02-27T03:37:30.249Z,-0.7
2019-02-27T03:38:37.448Z,-0.7
2019-02-27T03:39:44.375Z,-0.6
2019-02-27T03:40:51.595Z,-0.6
2019-02-27T03:42:00.017Z,-0.5
2019-02-27T03:43:11.403Z,-0.4
2019-02-27T03:44:21.974Z,-0.3
2019-02-27T03:45:32.146Z,-0.2
2019-02-27T03:46:42.379Z,-0.2
2019-02-27T03:47:53.242Z,-0.3
2019-02-27T03:49:04.618Z,-0.4
2019-02-27T03:50:15.734Z,-0.5
2019-02-27T03:51:25.761Z,-0.5
2019-02-27T03:52:37.361Z,-0.6
2019-02-27T03:53:47.604Z,-0.6
2019-02-27T03:54:58.689Z,-0.6
2019-02-27T03:56:09.958Z,-0.7
2019-02-27T03:57:20.761Z,-0.7
2019-02-27T03:58:31.800Z,-0.8
2019-02-27T03:59:43.821Z,-0.8
2019-02-27T04:00:54.449Z,-0.8
2019-02-27T04:02:06.919Z,-0.9
2019-02-27T04:03:18.743Z,-0.9
2019-02-27T04:04:30.877Z,-1
2019-02-27T04:05:45.986Z,-1
2019-02-27T04:06:57.252Z,-1
2019-02-27T04:08:09.190Z,-1
2019-02-27T04:09:20.207Z,-1.1
2019-02-27T04:10:41.421Z,-1.1
2019-02-27T04:11:48.856Z,-1.1
2019-02-27T04:12:56.062Z,-1.1
2019-02-27T04:14:06.002Z,-1.1
2019-02-27T04:15:18.905Z,-1.1
2019-02-27T04:16:30.469Z,-1.1
2019-02-27T04:17:37.764Z,-1.1
2019-02-27T04:18:44.699Z,-1.1
2019-02-27T04:19:51.902Z,-1.1
2019-02-27T04:20:58.565Z,-1.2
2019-02-27T04:22:05.771Z,-1.1
2019-02-27T04:23:13.366Z,-1.2
2019-02-27T04:24:23.599Z,-1.2
2019-02-27T04:25:32.627Z,-1.2
2019-02-27T04:26:43.039Z,-1.2
2019-02-27T04:27:56.336Z,-1.2
2019-02-27T04:29:08.378Z,-1.2
2019-02-27T04:30:16.143Z,-1.2
2019-02-27T04:31:23.407Z,-1.2
2019-02-27T04:32:36.028Z,-1.3
2019-02-27T04:33:43.239Z,-1.2
2019-02-27T04:34:50.461Z,-1.3
2019-02-27T04:35:57.671Z,-1.3
2019-02-27T04:37:04.913Z,-1.3
2019-02-27T04:38:12.116Z,-1.3
2019-02-27T04:39:19.332Z,-1.2
2019-02-27T04:40:26.545Z,-1.3
2019-02-27T04:41:33.984Z,-1.3
2019-02-27T04:42:40.926Z,-1.3
2019-02-27T04:43:48.148Z,-1.2
2019-02-27T04:44:55.353Z,-1.2
2019-02-27T04:46:02.490Z,-1.2
2019-02-27T04:47:09.710Z,-1.2
2019-02-27T04:48:16.916Z,-1.2
2019-02-27T04:49:24.132Z,-1.2
2019-02-27T04:50:31.063Z,-1.2
2019-02-27T04:51:38.013Z,-1.1
2019-02-27T04:52:45.449Z,-1.1
2019-02-27T04:53:52.383Z,-1.1
2019-02-27T04:54:59.603Z,-1.2
2019-02-27T04:56:06.981Z,-1.2
2019-02-27T04:57:14.205Z,-1.2
2019-02-27T04:58:21.145Z,-1.3
2019-02-27T04:59:28.561Z,-1.2
2019-02-27T05:00:35.761Z,-1.3
2019-02-27T05:01:42.929Z,-1.2
2019-02-27T05:02:54.114Z,-1.2
2019-02-27T05:04:02.551Z,-1.2
2019-02-27T05:05:09.834Z,-1.3
2019-02-27T05:06:16.780Z,-1.3
2019-02-27T05:07:23.750Z,-1.3
2019-02-27T05:08:30.950Z,-1.3
2019-02-27T05:09:37.867Z,-1.3
2019-02-27T05:10:45.292Z,-1.3
2019-02-27T05:11:52.500Z,-1.3
2019-02-27T05:12:59.938Z,-1.3
2019-02-27T05:14:07.137Z,-1.3
2019-02-27T05:15:14.354Z,-1.4
2019-02-27T05:16:21.569Z,-1.4
2019-02-27T05:17:28.789Z,-1.4
2019-02-27T05:18:36.007Z,-1.5
2019-02-27T05:19:42.890Z,-1.5
2019-02-27T05:20:50.108Z,-1.5
2019-02-27T05:21:57.311Z,-1.6
2019-02-27T05:23:04.543Z,-1.6
2019-02-27T05:24:11.784Z,-1.6
2019-02-27T05:25:18.715Z,-1.6
2019-02-27T05:26:28.267Z,-1.7
2019-02-27T05:27:34.637Z,-1.7
2019-02-27T05:28:42.064Z,-1.7
2019-02-27T05:29:49.267Z,-1.7
2019-02-27T05:30:56.469Z,-1.7
2019-02-27T05:32:03.692Z,-1.7
2019-02-27T05:33:10.634Z,-1.7
2019-02-27T05:34:17.862Z,-1.7
2019-02-27T05:35:25.070Z,-1.7
2019-02-27T05:36:32.933Z,-1.6
2019-02-27T05:37:40.368Z,-1.6
2019-02-27T05:38:47.001Z,-1.7
2019-02-27T05:39:54.267Z,-1.6
2019-02-27T05:41:01.481Z,-1.6
2019-02-27T05:42:08.690Z,-1.7
2019-02-27T05:43:15.642Z,-1.7
2019-02-27T05:44:22.902Z,-1.6
2019-02-27T05:45:31.748Z,-1.7
2019-02-27T05:46:39.567Z,-1.6
2019-02-27T05:47:46.519Z,-1.7
2019-02-27T05:48:54.430Z,-1.7
2019-02-27T05:50:01.766Z,-1.8
2019-02-27T05:51:11.033Z,-1.8
2019-02-27T05:52:18.297Z,-1.8
2019-02-27T05:53:25.737Z,-1.8
2019-02-27T05:54:33.428Z,-1.8
2019-02-27T05:55:40.860Z,-1.8
2019-02-27T05:56:50.735Z,-1.7
2019-02-27T05:57:57.656Z,-1.7
2019-02-27T05:59:04.352Z,-1.8
2019-02-27T06:00:11.296Z,-1.8
2019-02-27T06:01:18.516Z,-1.8
2019-02-27T06:02:26.086Z,-1.8
2019-02-27T06:03:33.291Z,-1.9
2019-02-27T06:04:40.493Z,-1.9
2019-02-27T06:05:50.209Z,-1.9
2019-02-27T06:06:57.537Z,-1.8
2019-02-27T06:08:04.738Z,-1.8
2019-02-27T06:09:11.966Z,-1.8
2019-02-27T06:10:23.315Z,-1.8
2019-02-27T06:11:33.657Z,-1.9
2019-02-27T06:12:41.451Z,-2
2019-02-27T06:13:48.881Z,-2
2019-02-27T06:14:56.078Z,-2
2019-02-27T06:16:08.367Z,-2
2019-02-27T06:17:16.173Z,-2
2019-02-27T06:18:24.204Z,-2
2019-02-27T06:19:34.683Z,-2
2019-02-27T06:20:42.981Z,-2
2019-02-27T06:21:50.182Z,-2
2019-02-27T06:22:57.621Z,-2
2019-02-27T06:24:04.821Z,-1.9
2019-02-27T06:25:12.031Z,-2
2019-02-27T06:26:19.230Z,-2
2019-02-27T06:27:26.433Z,-1.9
2019-02-27T06:28:33.640Z,-1.9
2019-02-27T06:29:41.084Z,-1.9
2019-02-27T06:30:48.287Z,-1.9
2019-02-27T06:31:55.713Z,-1.9
2019-02-27T06:33:02.913Z,-1.9
2019-02-27T06:34:10.146Z,-1.9
2019-02-27T06:35:16.836Z,-1.9
2019-02-27T06:36:24.056Z,-1.9
2019-02-27T06:37:31.005Z,-1.8
2019-02-27T06:38:38.223Z,-1.9
2019-02-27T06:39:45.429Z,-1.9
2019-02-27T06:40:52.849Z,-1.8
2019-02-27T06:41:59.784Z,-1.9
2019-02-27T06:43:07.033Z,-1.9
2019-02-27T06:44:13.974Z,-1.9
2019-02-27T06:45:21.207Z,-1.8
2019-02-27T06:46:28.439Z,-1.8
2019-02-27T06:47:36.646Z,-1.7
2019-02-27T06:48:44.634Z,-1.6
2019-02-27T06:49:52.692Z,-1.5
2019-02-27T06:51:01.993Z,-1.4
2019-02-27T06:52:10.266Z,-1.3
2019-02-27T06:53:17.472Z,-1.2
2019-02-27T06:54:24.717Z,-1.1
2019-02-27T06:55:33.791Z,-1
2019-02-27T06:56:41.276Z,-0.9
2019-02-27T06:57:48.491Z,-0.8
2019-02-27T06:58:55.936Z,-0.8
2019-02-27T07:00:03.616Z,-0.7
2019-02-27T07:01:13.664Z,-0.7
2019-02-27T07:02:22.727Z,-0.6
2019-02-27T07:03:33.329Z,-0.5
2019-02-27T07:04:40.767Z,-0.4
2019-02-27T23:00:11.309Z,0.5
2019-02-27T23:01:18.866Z,0.5
2019-02-27T23:02:25.795Z,0.5
2019-02-27T23:03:32.994Z,0.4
2019-02-27T23:04:40.194Z,0.4
2019-02-27T23:05:46.847Z,0.4
2019-02-27T23:06:53.766Z,0.4
2019-02-27T23:08:00.704Z,0.4
2019-02-27T23:09:07.636Z,0.4
2019-02-27T23:10:30.916Z,0.4
2019-02-27T23:11:40.164Z,0.4
2019-02-27T23:12:47.363Z,0.4
2019-02-27T23:13:54.309Z,0.4
2019-02-27T23:15:00.969Z,0.3
2019-02-27T23:16:08.169Z,0.3
2019-02-27T23:17:15.093Z,0.3
2019-02-27T23:18:22.295Z,0.3
2019-02-27T23:19:28.967Z,0.3
2019-02-27T23:20:36.100Z,0.2
2019-02-27T23:21:43.313Z,0.2
2019-02-27T23:22:50.253Z,0.2
2019-02-27T23:23:57.194Z,0.2
2019-02-27T23:25:04.400Z,0.1
2019-02-27T23:26:11.607Z,0.2
2019-02-27T23:27:18.813Z,0.1
2019-02-27T23:28:26.022Z,0.2
2019-02-27T23:29:33.235Z,0.1
2019-02-27T23:30:40.453Z,0.1
2019-02-27T23:31:47.092Z,0.1
2019-02-27T23:32:54.023Z,0.1
2019-02-27T23:34:01.241Z,0.1
2019-02-27T23:35:08.462Z,0.1
2019-02-27T23:36:15.682Z,0.1
2019-02-27T23:37:22.891Z,0.1
2019-02-27T23:38:30.092Z,0.1
2019-02-27T23:39:43.624Z,0.1
2019-02-27T23:40:50.839Z,0
2019-02-27T23:41:58.037Z,0
2019-02-27T23:43:05.245Z,0
2019-02-27T23:44:12.751Z,0
2019-02-27T23:45:19.678Z,0
2019-02-27T23:46:26.881Z,0
2019-02-27T23:47:34.094Z,0
2019-02-27T23:48:41.303Z,0
2019-02-27T23:49:48.236Z,0
2019-02-27T23:50:55.448Z,0
2019-02-27T23:52:02.374Z,0
2019-02-27T23:53:09.296Z,0
2019-02-27T23:54:16.499Z,0
2019-02-27T23:55:23.425Z,0
2019-02-27T23:56:30.354Z,0
2019-02-27T23:57:37.561Z,0
2019-02-27T23:58:44.491Z,0
2019-02-27T23:59:51.435Z,0
